createdAt,value
2022-11-13T00:01:26.516Z,19.20
2022-11-13T00:04:18.755Z,18.10
2022-11-13T00:07:08.764Z,21.67
2022-11-13T00:09:57.985Z,18.80
2022-11-13T00:12:50.109Z,20.90
2022-11-13T00:15:40.744Z,18.38
2022-11-13T00:18:30.313Z,16.38
2022-11-13T00:21:23.136Z,21.83
2022-11-13T00:24:12.367Z,21.35
2022-11-13T00:27:01.931Z,24.83
2022-11-13T00:29:57.203Z,24.00
2022-11-13T00:32:47.969Z,24.70
2022-11-13T00:35:38.178Z,22.17
2022-11-13T00:38:28.382Z,24.15
2022-11-13T00:41:18.304Z,18.23
2022-11-13T00:44:08.024Z,25.15
2022-11-13T00:46:57.090Z,21.10
2022-11-13T00:49:48.283Z,21.77
2022-11-13T00:52:37.034Z,25.25
2022-11-13T00:55:26.572Z,19.80
2022-11-13T00:58:16.349Z,24.13
2022-11-13T01:01:07.489Z,21.42
2022-11-13T01:03:57.365Z,25.00
2022-11-13T01:06:48.415Z,19.70
2022-11-13T01:09:37.238Z,17.92
2022-11-13T01:12:26.305Z,17.88
2022-11-13T01:15:15.074Z,19.45
2022-11-13T01:18:05.461Z,20.17
2022-11-13T01:21:03.590Z,28.50
2022-11-13T01:23:54.696Z,14.80
2022-11-13T01:26:45.118Z,19.02
2022-11-13T01:29:34.565Z,20.52
2022-11-13T01:32:24.288Z,17.70
2022-11-13T01:35:13.469Z,18.67
2022-11-13T01:38:02.609Z,20.05
2022-11-13T01:40:53.225Z,16.33
2022-11-13T01:43:42.184Z,15.55
2022-11-13T01:46:33.483Z,15.82
2022-11-13T01:49:30.667Z,15.07
2022-11-13T01:52:22.813Z,18.83
2022-11-13T01:55:15.504Z,18.83
2022-11-13T01:58:09.540Z,13.50
2022-11-13T02:00:58.666Z,19.88
2022-11-13T02:03:50.518Z,15.90
2022-11-13T02:06:45.517Z,20.65
2022-11-13T02:09:37.775Z,16.55
2022-11-13T02:12:32.739Z,17.48
2022-11-13T02:15:28.147Z,14.57
2022-11-13T02:18:20.663Z,20.50
2022-11-13T02:21:20.212Z,20.50
2022-11-13T02:24:22.840Z,16.05
2022-11-13T02:27:17.864Z,15.70
2022-11-13T02:30:16.350Z,16.55
2022-11-13T02:33:24.841Z,13.45
2022-11-13T02:36:18.260Z,17.30
2022-11-13T02:39:10.905Z,19.80
2022-11-13T02:42:00.430Z,20.65
2022-11-13T02:44:47.823Z,15.13
2022-11-13T02:47:37.133Z,18.00
2022-11-13T02:50:26.146Z,17.80
2022-11-13T02:53:15.960Z,17.92
2022-11-13T02:56:05.936Z,19.88
2022-11-13T02:58:56.734Z,28.30
2022-11-13T03:01:48.595Z,16.45
2022-11-13T03:05:05.139Z,15.93
2022-11-13T03:07:49.622Z,19.33
2022-11-13T03:10:38.976Z,20.40
2022-11-13T03:13:27.684Z,27.23
2022-11-13T03:16:19.416Z,19.20
2022-11-13T03:19:09.183Z,17.83
2022-11-13T03:21:59.689Z,20.60
2022-11-13T03:24:49.424Z,16.85
2022-11-13T03:27:38.159Z,17.42
2022-11-13T03:30:26.157Z,21.98
2022-11-13T03:33:14.996Z,15.13
2022-11-13T03:36:04.272Z,21.90
2022-11-13T03:38:55.094Z,20.33
2022-11-13T03:41:44.071Z,17.45
2022-11-13T03:44:33.054Z,21.70
2022-11-13T03:47:22.077Z,19.55
2022-11-13T03:50:13.220Z,21.52
2022-11-13T03:53:02.850Z,17.83
2022-11-13T03:55:52.252Z,19.48
2022-11-13T03:58:45.810Z,16.45
2022-11-13T04:01:38.206Z,20.85
2022-11-13T04:04:27.746Z,19.85
2022-11-13T04:07:18.816Z,20.15
2022-11-13T04:10:09.134Z,20.38
2022-11-13T04:12:58.213Z,19.67
2022-11-13T04:15:47.486Z,17.10
2022-11-13T04:18:34.846Z,17.77
2022-11-13T04:21:21.998Z,21.60
2022-11-13T04:24:12.550Z,19.38
2022-11-13T04:27:01.855Z,22.85
2022-11-13T04:29:51.144Z,16.38
2022-11-13T04:32:39.981Z,21.63
2022-11-13T04:35:28.953Z,18.73
2022-11-13T04:38:19.295Z,18.65
2022-11-13T04:41:27.171Z,18.65
2022-11-13T04:44:14.907Z,18.05
2022-11-13T04:47:06.179Z,15.57
2022-11-13T04:49:55.332Z,22.70
2022-11-13T04:52:44.957Z,19.42
2022-11-13T04:55:34.093Z,21.02
2022-11-13T04:58:24.947Z,22.58
2022-11-13T05:01:15.047Z,28.25
2022-11-13T05:04:05.043Z,21.83
2022-11-13T05:06:55.744Z,18.13
2022-11-13T05:09:44.446Z,22.88
2022-11-13T05:12:32.586Z,21.20
2022-11-13T05:15:22.990Z,19.20
2022-11-13T05:18:12.025Z,19.70
2022-11-13T05:21:01.227Z,22.33
2022-11-13T05:23:53.569Z,19.15
2022-11-13T05:26:43.126Z,19.20
2022-11-13T05:29:32.543Z,20.60
2022-11-13T05:32:22.585Z,18.88
2022-11-13T05:35:11.884Z,17.77
2022-11-13T05:38:02.826Z,20.40
2022-11-13T05:40:52.371Z,19.77
2022-11-13T05:43:41.932Z,18.45
2022-11-13T05:46:32.430Z,20.08
2022-11-13T05:49:24.293Z,16.02
2022-11-13T05:52:13.877Z,16.52
2022-11-13T05:55:02.984Z,19.58
2022-11-13T05:57:51.897Z,18.23
2022-11-13T06:00:39.738Z,13.82
2022-11-13T06:03:27.972Z,18.65
2022-11-13T06:06:18.761Z,17.77
2022-11-13T06:09:10.210Z,18.67
2022-11-13T06:11:58.284Z,19.60
2022-11-13T06:14:46.862Z,17.02
2022-11-13T06:17:35.428Z,16.92
2022-11-13T06:20:24.558Z,14.88
2022-11-13T06:23:13.900Z,15.02
2022-11-13T06:26:02.728Z,17.42
2022-11-13T06:28:51.696Z,12.75
2022-11-13T06:31:39.896Z,15.73
2022-11-13T06:34:27.211Z,19.95
2022-11-13T06:37:16.021Z,15.88
2022-11-13T06:40:08.402Z,16.38
2022-11-13T06:42:56.689Z,16.52
2022-11-13T06:45:44.929Z,15.95
2022-11-13T06:48:33.682Z,16.70
2022-11-13T06:51:24.246Z,16.00
2022-11-13T06:54:12.819Z,16.40
2022-11-13T06:57:02.572Z,15.35
2022-11-13T06:59:50.590Z,16.00
2022-11-13T07:02:40.933Z,15.93
2022-11-13T07:05:29.661Z,18.75
2022-11-13T07:08:18.445Z,16.85
2022-11-13T07:11:07.823Z,12.93
2022-11-13T07:13:57.318Z,17.27
2022-11-13T07:17:07.922Z,17.13
2022-11-13T07:19:55.722Z,12.60
2022-11-13T07:22:44.149Z,15.02
2022-11-13T07:25:33.274Z,16.33
2022-11-13T07:28:21.663Z,15.57
2022-11-13T07:31:13.381Z,16.35
2022-11-13T07:34:04.907Z,15.07
2022-11-13T07:36:53.828Z,11.95
2022-11-13T07:39:41.454Z,15.15
2022-11-13T07:42:30.006Z,18.13
2022-11-13T07:45:19.012Z,11.93
2022-11-13T07:48:09.326Z,9.50
2022-11-13T07:51:01.841Z,15.20
2022-11-13T07:53:49.987Z,25.08
2022-11-13T07:56:37.266Z,14.18
2022-11-13T07:59:25.890Z,12.35
2022-11-13T08:02:16.767Z,15.38
2022-11-13T08:05:08.607Z,10.95
2022-11-13T08:07:57.349Z,16.20
2022-11-13T08:10:46.988Z,14.65
2022-11-13T08:13:35.633Z,12.70
2022-11-13T08:16:24.528Z,9.18
2022-11-13T08:19:16.310Z,13.98
2022-11-13T08:22:08.670Z,11.13
2022-11-13T08:24:57.728Z,9.68
2022-11-13T08:27:47.380Z,14.27
2022-11-13T08:30:35.418Z,14.18
2022-11-13T08:33:24.521Z,12.15
2022-11-13T08:36:13.177Z,12.52
2022-11-13T08:39:03.685Z,11.07
2022-11-13T08:41:52.994Z,10.68
2022-11-13T08:44:41.695Z,12.52
2022-11-13T08:47:32.083Z,16.40
2022-11-13T08:50:21.235Z,10.73
2022-11-13T08:53:10.373Z,13.32
2022-11-13T08:56:01.527Z,13.43
2022-11-13T08:58:50.608Z,13.20
2022-11-13T09:01:39.249Z,13.80
2022-11-13T09:04:28.256Z,14.18
2022-11-13T09:07:17.949Z,10.65
2022-11-13T09:10:07.476Z,14.32
2022-11-13T09:13:01.917Z,11.68
2022-11-13T09:15:52.153Z,14.88
2022-11-13T09:18:40.659Z,25.67
2022-11-13T09:21:28.777Z,16.90
2022-11-13T09:24:17.019Z,14.70
2022-11-13T09:27:06.087Z,16.20
2022-11-13T09:29:58.232Z,12.50
2022-11-13T09:32:46.947Z,12.18
2022-11-13T09:35:36.817Z,15.60
2022-11-13T09:38:29.967Z,11.23
2022-11-13T09:41:22.712Z,14.25
2022-11-13T09:44:17.573Z,15.32
2022-11-13T09:47:14.305Z,14.27
2022-11-13T09:50:07.877Z,14.63
2022-11-13T09:52:57.207Z,12.75
2022-11-13T09:55:56.419Z,11.90
2022-11-13T09:58:51.529Z,17.92
2022-11-13T10:01:50.798Z,10.10
2022-11-13T10:04:54.765Z,11.25
2022-11-13T10:07:52.361Z,9.85
2022-11-13T10:10:55.626Z,14.23
2022-11-13T10:13:47.151Z,18.30
2022-11-13T10:16:38.860Z,13.88
2022-11-13T10:19:33.708Z,12.88
2022-11-13T10:22:33.836Z,11.70
2022-11-13T10:25:24.574Z,9.73
2022-11-13T10:28:43.664Z,12.95
2022-11-13T10:31:25.740Z,9.75
2022-11-13T10:34:15.147Z,10.82
2022-11-13T10:37:21.506Z,5.63
2022-11-13T10:40:11.606Z,9.48
2022-11-13T10:43:07.534Z,9.23
2022-11-13T10:45:58.438Z,8.32
2022-11-13T10:48:47.356Z,8.05
2022-11-13T10:51:36.300Z,8.68
2022-11-13T10:54:29.577Z,8.20
2022-11-13T10:57:33.456Z,7.93
2022-11-13T11:00:24.395Z,10.68
2022-11-13T11:03:17.536Z,9.60
2022-11-13T11:06:08.405Z,10.52
2022-11-13T11:09:07.494Z,6.22
2022-11-13T11:12:31.209Z,6.60
2022-11-13T11:18:25.267Z,6.15
2022-11-13T11:21:17.486Z,7.85
2022-11-13T11:24:10.934Z,7.47
2022-11-13T11:27:04.647Z,6.85
2022-11-13T11:30:02.595Z,8.05
2022-11-13T11:33:01.878Z,6.75
2022-11-13T11:35:55.194Z,6.63
2022-11-13T11:38:52.391Z,7.40
2022-11-13T11:41:45.246Z,7.78
2022-11-13T11:44:41.912Z,6.40
2022-11-13T11:47:29.372Z,36.92
2022-11-13T11:50:24.674Z,53.95
2022-11-13T11:53:17.313Z,10.85
2022-11-13T11:56:23.767Z,5.38
2022-11-13T11:59:31.373Z,6.00
2022-11-13T12:02:47.477Z,6.82
2022-11-13T12:05:50.057Z,7.35
2022-11-13T12:08:48.250Z,7.15
2022-11-13T12:11:44.986Z,8.35
2022-11-13T12:14:43.708Z,8.50
2022-11-13T12:17:50.171Z,9.98
2022-11-13T12:20:48.631Z,8.85
2022-11-13T12:23:50.037Z,6.28
2022-11-13T12:26:45.029Z,9.27
2022-11-13T12:29:50.780Z,9.07
2022-11-13T12:32:56.439Z,6.50
2022-11-13T12:35:49.267Z,8.15
2022-11-13T12:38:49.396Z,7.50
2022-11-13T12:41:44.323Z,8.52
2022-11-13T12:44:41.223Z,7.20
2022-11-13T12:47:28.757Z,7.70
2022-11-13T12:50:31.739Z,7.70
2022-11-13T12:53:29.024Z,11.35
2022-11-13T12:56:30.460Z,8.65
2022-11-13T12:59:34.115Z,11.55
2022-11-13T13:02:47.695Z,6.40
2022-11-13T13:05:53.659Z,6.90
2022-11-13T13:08:57.871Z,5.90
2022-11-13T13:11:52.744Z,5.72
2022-11-13T13:15:13.369Z,7.95
2022-11-13T13:18:12.464Z,5.38
2022-11-13T13:21:10.352Z,6.15
2022-11-13T13:24:08.353Z,6.30
2022-11-13T13:26:57.865Z,5.43
2022-11-13T13:29:47.129Z,6.25
2022-11-13T13:32:46.488Z,5.22
2022-11-13T13:35:40.599Z,6.00
2022-11-13T13:38:35.863Z,7.97
2022-11-13T13:41:46.568Z,6.88
2022-11-13T13:44:59.847Z,8.73
2022-11-13T13:47:50.666Z,6.85
2022-11-13T13:50:43.414Z,8.63
2022-11-13T13:53:36.045Z,6.07
2022-11-13T13:56:25.641Z,8.75
2022-11-13T13:59:21.290Z,5.60
2022-11-13T14:02:17.014Z,9.65
2022-11-13T14:05:25.729Z,8.77
2022-11-13T14:08:24.072Z,8.65
2022-11-13T14:11:20.992Z,7.60
2022-11-13T14:14:09.984Z,9.27
2022-11-13T14:17:01.965Z,8.45
2022-11-13T14:19:53.581Z,7.30
2022-11-13T14:22:45.222Z,10.68
2022-11-13T14:25:33.454Z,9.98
2022-11-13T14:28:24.055Z,9.30
2022-11-13T14:31:15.182Z,10.43
2022-11-13T14:34:11.167Z,26.45
2022-11-13T14:37:13.903Z,9.80
2022-11-13T14:40:06.136Z,10.52
2022-11-13T14:42:57.699Z,6.70
2022-11-13T14:45:55.056Z,11.00
2022-11-13T14:48:54.830Z,8.20
2022-11-13T14:51:55.634Z,8.60
2022-11-13T14:57:52.376Z,7.72
2022-11-13T15:00:40.409Z,5.72
2022-11-13T15:03:29.134Z,9.15
2022-11-13T15:06:20.539Z,5.55
2022-11-13T15:09:16.640Z,7.57
2022-11-13T15:12:05.363Z,6.80
2022-11-13T15:14:54.833Z,6.97
2022-11-13T15:17:44.516Z,7.72
2022-11-13T15:20:34.003Z,8.07
2022-11-13T15:23:25.988Z,6.93
2022-11-13T15:26:16.509Z,6.20
2022-11-13T15:29:05.208Z,5.80
2022-11-13T15:31:54.758Z,6.20
2022-11-13T15:34:43.218Z,7.65
2022-11-13T15:37:31.128Z,15.93
2022-11-13T15:40:21.038Z,10.13
2022-11-13T15:43:19.408Z,9.25
2022-11-13T15:46:11.405Z,9.20
2022-11-13T15:49:00.166Z,6.72
2022-11-13T15:51:48.329Z,6.70
2022-11-13T15:54:40.070Z,9.15
2022-11-13T15:57:29.554Z,11.80
2022-11-13T16:00:21.443Z,7.60
2022-11-13T16:03:12.312Z,9.38
2022-11-13T16:06:01.356Z,9.18
2022-11-13T16:08:50.178Z,8.43
2022-11-13T16:11:38.531Z,11.05
2022-11-13T16:14:26.862Z,9.82
2022-11-13T16:17:20.356Z,11.35
2022-11-13T16:20:15.293Z,13.82
2022-11-13T16:23:03.889Z,8.68
2022-11-13T16:25:51.768Z,7.00
2022-11-13T16:29:07.196Z,11.90
2022-11-13T16:31:49.427Z,14.18
2022-11-13T16:34:39.929Z,9.13
2022-11-13T16:37:28.828Z,12.80
2022-11-13T16:40:21.092Z,8.10
2022-11-13T16:43:09.900Z,10.20
2022-11-13T16:46:01.285Z,8.35
2022-11-13T16:48:49.768Z,8.45
2022-11-13T16:51:39.803Z,11.90
2022-11-13T16:54:28.904Z,9.05
2022-11-13T16:57:17.260Z,10.50
2022-11-13T17:00:09.348Z,8.50
2022-11-13T17:02:57.676Z,8.15
2022-11-13T17:05:46.164Z,8.98
2022-11-13T17:08:37.153Z,8.60
2022-11-13T17:11:27.023Z,11.52
2022-11-13T17:14:16.391Z,6.70
2022-11-13T17:17:06.093Z,13.98
2022-11-13T17:19:54.365Z,8.75
2022-11-13T17:22:48.091Z,7.32
2022-11-13T17:28:25.933Z,9.35
2022-11-13T17:31:14.405Z,8.73
2022-11-13T17:34:04.966Z,9.88
2022-11-13T17:36:54.765Z,12.52
2022-11-13T17:39:43.469Z,12.35
2022-11-13T17:42:32.808Z,12.65
2022-11-13T17:45:20.364Z,42.17
2022-11-13T17:48:09.169Z,15.98
2022-11-13T17:50:58.532Z,13.55
2022-11-13T17:53:46.831Z,10.52
2022-11-13T17:56:36.100Z,14.68
2022-11-13T17:59:26.003Z,12.05
2022-11-13T18:02:14.862Z,11.10
2022-11-13T18:05:04.377Z,13.55
2022-11-13T18:07:55.823Z,10.30
2022-11-13T18:10:44.652Z,9.98
2022-11-13T18:13:32.792Z,11.57
2022-11-13T18:16:24.313Z,10.45
2022-11-13T18:19:13.378Z,13.23
2022-11-13T18:22:01.331Z,11.38
2022-11-13T18:24:49.972Z,9.52
2022-11-13T18:27:38.968Z,10.00
2022-11-13T18:30:27.942Z,8.02
2022-11-13T18:33:17.432Z,12.13
2022-11-13T18:36:08.841Z,10.35
2022-11-13T18:39:10.444Z,11.40
2022-11-13T18:42:01.411Z,10.52
2022-11-13T18:44:50.084Z,9.05
2022-11-13T18:47:38.170Z,8.73
2022-11-13T18:50:28.407Z,11.77
2022-11-13T18:53:17.611Z,8.70
2022-11-13T18:56:08.834Z,13.13
2022-11-13T18:58:59.260Z,13.38
2022-11-13T19:01:48.328Z,13.70
2022-11-13T19:04:38.056Z,15.15
2022-11-13T19:07:27.186Z,9.85
2022-11-13T19:10:16.702Z,11.15
2022-11-13T19:13:04.992Z,9.73
2022-11-13T19:15:56.092Z,12.68
2022-11-13T19:18:50.949Z,10.75
2022-11-13T19:21:38.982Z,9.95
2022-11-13T19:24:28.277Z,10.85
2022-11-13T19:27:16.223Z,13.43
2022-11-13T19:30:07.058Z,8.90
2022-11-13T19:32:55.113Z,17.50
2022-11-13T19:35:43.627Z,13.88
2022-11-13T19:38:31.657Z,10.23
2022-11-13T19:41:21.344Z,12.00
2022-11-13T19:44:10.858Z,12.27
2022-11-13T19:47:01.873Z,11.13
2022-11-13T19:49:49.962Z,11.30
2022-11-13T19:52:37.552Z,10.75
2022-11-13T19:55:26.378Z,16.88
2022-11-13T19:58:17.043Z,14.45
2022-11-13T20:01:10.309Z,14.70
2022-11-13T20:04:01.500Z,17.77
2022-11-13T20:06:52.792Z,13.07
2022-11-13T20:09:41.477Z,14.15
2022-11-13T20:12:30.658Z,17.50
2022-11-13T20:15:21.749Z,14.32
2022-11-13T20:18:10.733Z,15.52
2022-11-13T20:20:59.970Z,15.30
2022-11-13T20:23:50.626Z,15.68
2022-11-13T20:26:39.220Z,15.48
2022-11-13T20:29:27.541Z,16.20
2022-11-13T20:32:17.397Z,14.63
2022-11-13T20:35:06.935Z,18.52
2022-11-13T20:37:55.473Z,16.15
2022-11-13T20:40:43.873Z,17.20
2022-11-13T20:43:33.196Z,24.23
2022-11-13T20:46:22.460Z,14.38
2022-11-13T20:49:11.991Z,18.55
2022-11-13T20:52:01.828Z,16.45
2022-11-13T20:54:50.521Z,16.65
2022-11-13T20:57:40.916Z,16.25
2022-11-13T21:00:32.841Z,15.07
2022-11-13T21:03:24.692Z,17.08
2022-11-13T21:06:18.181Z,17.35
2022-11-13T21:09:07.790Z,16.33
2022-11-13T21:11:57.364Z,16.50
2022-11-13T21:14:51.730Z,16.02
2022-11-13T21:17:39.912Z,17.83
2022-11-13T21:20:31.167Z,30.52
2022-11-13T21:23:21.132Z,28.85
2022-11-13T21:26:10.744Z,41.10
2022-11-13T21:29:01.031Z,42.28
2022-11-13T21:31:53.022Z,27.15
2022-11-13T21:34:41.565Z,26.38
2022-11-13T21:37:29.631Z,21.17
2022-11-13T21:40:20.445Z,24.90
2022-11-13T21:43:09.816Z,21.10
2022-11-13T21:46:09.014Z,19.70
2022-11-13T21:49:00.905Z,17.48
2022-11-13T21:51:50.867Z,19.92
2022-11-13T21:54:40.689Z,18.52
2022-11-13T21:57:31.784Z,19.70
2022-11-13T22:00:20.993Z,17.63
2022-11-13T22:03:09.839Z,19.58
2022-11-13T22:06:15.701Z,16.02
2022-11-13T22:09:09.067Z,19.27
2022-11-13T22:11:58.332Z,15.88
2022-11-13T22:14:48.819Z,20.08
2022-11-13T22:17:39.238Z,15.98
2022-11-13T22:20:28.555Z,17.35
2022-11-13T22:23:17.760Z,17.85
2022-11-13T22:26:07.848Z,19.88
2022-11-13T22:28:56.603Z,21.92
2022-11-13T22:31:48.446Z,17.23
2022-11-13T22:34:37.639Z,18.08
2022-11-13T22:37:27.825Z,17.40
2022-11-13T22:40:22.093Z,17.55
2022-11-13T22:43:25.255Z,16.35
2022-11-13T22:46:23.293Z,16.90
2022-11-13T22:49:18.710Z,16.92
2022-11-13T22:52:10.575Z,17.77
2022-11-13T22:55:29.019Z,15.27
2022-11-13T22:58:17.072Z,16.98
2022-11-13T23:01:07.829Z,15.60
2022-11-13T23:03:57.071Z,18.88
2022-11-13T23:06:47.453Z,15.32
2022-11-13T23:09:36.071Z,18.33
2022-11-13T23:12:25.483Z,18.00
2022-11-13T23:15:12.972Z,19.23
2022-11-13T23:18:01.222Z,18.35
2022-11-13T23:20:51.185Z,16.02
2022-11-13T23:23:39.819Z,18.08
2022-11-13T23:26:28.050Z,19.40
2022-11-13T23:29:15.323Z,18.50
2022-11-13T23:32:02.692Z,19.65
2022-11-13T23:35:04.721Z,16.10
2022-11-13T23:37:52.139Z,15.13
2022-11-13T23:40:40.763Z,14.77
2022-11-13T23:44:01.694Z,20.08
2022-11-13T23:46:37.230Z,17.92
2022-11-13T23:49:24.522Z,16.75
2022-11-13T23:52:11.999Z,20.55
2022-11-13T23:55:04.658Z,15.75
2022-11-13T23:57:59.008Z,16.45
